Flight Track Log - Related Links

Times and Time Zones

All times are in EDT time to prevent confusion due to time zone crossing. See the EJA131 flight status page for this flight to view local times or setup timezone preferences in your user account.

Time Position Orientation Groundspeed Altitude Reporting Facility
EDT Latitude Longitude Course Direction KTS MPH feet Rate Location/Type
Sat 04:53:15 PM 26.3603 -80.9189 318° Northwest 357 411 16,100  Level Miami Center
Sat 04:54:15 PM 26.4311 -80.9956 316° Northwest 363 418 16,100 -50 Level Miami Center
Sat 04:55:15 PM 26.5064 -81.0700 318° Northwest 368 423 16,000 -50 Descending Miami Center
Sat 04:56:15 PM 26.5731 -81.1419 316° Northwest 368 423 16,000  Level Miami Center
Sat 04:57:15 PM 26.6458 -81.2214 316° Northwest 368 423 16,000  Level Miami Center
Sat 04:58:00 PM 26.8076 -81.3164 318° Northwest  Level Estimated
Sat 04:58:15 PM 26.7267 -81.3081 316° Northwest 368 423 16,000  Level Miami Center
Sat 04:59:15 PM 26.7994 -81.3853 317° Northwest 368 423 15,900 -50 Descending Miami Center
Sat 05:00:15 PM 26.8744 -81.4650 317° Northwest 368 423 15,900  Level Miami Center
Sat 05:01:15 PM 26.9408 -81.5375 316° Northwest 368 423 15,900  Level Miami Center
Sat 05:02:15 PM 27.0133 -81.6197 315° West 368 423 15,900  Level Miami Center
Sat 05:03:15 PM 27.0856 -81.7067 313° West 368 423 15,900  Level Miami Center
Sat 05:04:15 PM 27.1558 -81.7889 314° West 368 423 15,900  Level Miami Center
Sat 05:05:15 PM 27.2281 -81.8736 314° West 368 423 15,900 -300 Level Miami Center
Sat 05:06:15 PM 27.2983 -81.9536 315° West 368 423 15,300 -1,300 Descending Miami Center
Sat 05:07:15 PM 27.3706 -82.0389 314° West 368 423 13,300 -1,950 Descending Miami Center
Sat 05:08:15 PM 27.4367 -82.1167 314° West 362 417 11,400 -1,150 Descending Miami Center
Sat 05:09:15 PM 27.4944 -82.1847 314° West 330 380 11,000 -500 Descending Miami Center
Sat 05:10:15 PM 27.5544 -82.2556 314° West 292 336 10,400 -1,100 Descending Miami Center
Sat 05:11:15 PM 27.6083 -82.3258 311° West 287 330 8,800 -1,691 Descending Miami Center
Sat 05:12:05 PM 27.6500 -82.3833 309° West 287 330 7,300 -1,909 Descending Tampa TRACON
Sat 05:13:05 PM 27.7167 -82.4500 318° Northwest 278 320 5,300 -2,143 Descending Tampa TRACON
Sat 05:14:11 PM 27.7667 -82.5000 319° Northwest 269 310 2,800 -1,286 Descending Tampa TRACON
Sat 05:15:11 PM 27.8333 -82.5500 326° Northwest 247 284 2,600 -550 Descending Tampa TRACON
Sat 05:16:11 PM 27.8833 -82.5500 360° North 183 211 1,700 -850 Descending Tampa TRACON
Sat 05:17:11 PM 27.9167 -82.5500 360° North 152 175 900 -700 Descending Tampa TRACON
Sat 05:18:11 PM 27.9500 -82.5500 360° North 130 150 300 -600 Descending Tampa TRACON
Sat 05:20:00 PM 27.9755 -82.5332 21° North  Level Estimated
Sat 05:27:00 PM 27.9755 -82.5332 190° South  Level Estimated

Login

Don't have an account? Register now (free) for customized features, flight alerts, and more!